Tropical Cyclones
[Index]
Main Index Home Page Stock Weather Photos Extreme Storms Discussion Storm News and Storm Chasing Reports Tropical Cyclones / Hurricanes / Typhoons Weather Data and Links Wild Fires / Bushfires Weather Observation Techniques Weather Picture Catalogue Tornado Pictures and Reports Stock Video Footage and DVDs for sale
Season 1989-1990 Tropical Cyclone OFA Track Map
Season 1989-1990 Summaries: [BoM-AU] [JTWC-AU] [JTWC-SIO] [JTWC-SPAC] [JTWC-SH]
<<- Previous TC | JTWC 1989-1990 Season | Next TC ->>

click for intensity scale information  Lat/long Grid: Show Hide

 Date Labels: Show Hide

Joint Typhoon Warning Centre Cyclone Data

Name: OFA

28 Jan 1990 00:00 UTC to 09 Feb 1990 12:00 UTC

    date/time    lat    long     hPa   cat  kts
1990-01-28 00    9.7   177.1W                 25          
1990-01-28 06   10.3   177.4W                 25          
1990-01-28 12   10.7   178.2W                 25          
1990-01-28 18   10.4   178.9W                 25          
1990-01-29 00    9.7   179.3W                 25          
1990-01-29 06    9.1   179.4W                 25          
1990-01-29 12    8.6   179.5W                 25          
1990-01-29 18    8.3   179.6W                 25          
1990-01-30 00    8.0   179.8W                 25          
1990-01-30 06    7.6   179.7W                 25          
1990-01-30 12    7.4   179.3W                 30          
1990-01-30 18    7.5   178.9W                 30          
1990-01-31 00    7.6   178.7W                 30          
1990-01-31 06    7.8   178.5W                 30          
1990-01-31 12    8.0   178.2W                 35          
1990-01-31 18    8.3   177.9W           1     40          
1990-02-01 00    8.5   177.5W           1     50          
1990-02-01 06    8.7   177.0W           2     55          
1990-02-01 12    9.0   176.7W           2     65          
1990-02-01 18    9.3   176.2W           3     75          
1990-02-02 00    9.9   175.5W           3     85          
1990-02-02 06   10.2   175.2W           3     90          
1990-02-02 12   10.6   174.8W           3     95          
1990-02-02 18   11.4   174.3W           4    100          
1990-02-03 00   12.3   174.1W           4    105          
1990-02-03 06   12.9   173.9W           4    110          
1990-02-03 12   13.6   173.9W           4    110          
1990-02-03 18   14.0   173.8W           4    110          
1990-02-04 00   14.7   173.6W           4    110          
1990-02-04 06   15.7   172.9W           4    115          
1990-02-04 12   16.7   172.0W           4    115          
1990-02-04 18   17.8   171.3W           4    110          
1990-02-05 00   19.1   170.7W           4    110          
1990-02-05 06   19.9   169.9W           4    105          
1990-02-05 12   20.8   169.2W           4    100          
1990-02-05 18   21.8   168.9W           3     95          
1990-02-06 00   22.7   168.7W           4    100          
1990-02-06 06   23.5   168.6W           4    100          
1990-02-06 12   24.3   168.8W           3     90          
1990-02-06 18   25.2   169.1W           3     80          
1990-02-07 00   25.8   169.4W           2     65          
1990-02-07 06   26.7   169.8W           1     50          
1990-02-07 12   27.3   170.1W           1     40          
1990-02-07 18   28.0   170.6W           1     40          
1990-02-08 00   28.7   171.1W                 35          
1990-02-08 06   29.5   171.7W                 30          
1990-02-08 12   30.2   172.0W                 30          
1990-02-08 18   30.7   172.5W                 30          
1990-02-09 00   30.9   172.6W                 30          
1990-02-09 06   31.0   172.8W                 25          
1990-02-09 12   31.1   172.9W                 25          
Winds are 1-min average.

Tropical cyclone tracks developed by Michael Bath using data from the Joint Typhoon Warning Centre Best Tracks and Google Maps.


[Australian Severe Weather index] [Copyright Notice] [Email Contacts] [Search This Site] [Privacy Policy]
Document: tropical_cyclone_ofa.htm Updated: 18 September 2016